createdAt,value
2023-01-29T00:01:56.628Z,10.83
2023-01-29T00:04:24.116Z,10.10
2023-01-29T00:06:50.901Z,10.00
2023-01-29T00:09:18.980Z,10.90
2023-01-29T00:11:45.752Z,10.27
2023-01-29T00:14:12.631Z,11.93
2023-01-29T00:16:39.496Z,10.90
2023-01-29T00:19:06.318Z,14.30
2023-01-29T00:21:33.572Z,10.03
2023-01-29T00:24:00.406Z,10.27
2023-01-29T00:26:27.795Z,12.17
2023-01-29T00:28:55.090Z,9.77
2023-01-29T00:31:24.442Z,11.50
2023-01-29T00:33:51.477Z,9.97
2023-01-29T00:36:20.304Z,11.97
2023-01-29T00:38:55.071Z,9.93
2023-01-29T00:41:38.229Z,13.60
2023-01-29T00:44:25.992Z,12.43
2023-01-29T00:46:53.259Z,10.80
2023-01-29T00:49:20.183Z,8.20
2023-01-29T00:52:09.363Z,8.67
2023-01-29T00:57:04.338Z,11.50
2023-01-29T00:59:31.608Z,9.87
2023-01-29T01:02:17.644Z,13.27
2023-01-29T01:04:44.361Z,14.55
2023-01-29T01:09:56.683Z,12.30
2023-01-29T01:12:23.400Z,10.10
2023-01-29T01:14:50.643Z,9.93
2023-01-29T01:17:18.028Z,11.70
2023-01-29T01:19:45.033Z,12.73
2023-01-29T01:22:12.262Z,12.65
2023-01-29T01:24:39.407Z,15.03
2023-01-29T01:27:06.538Z,12.10
2023-01-29T01:29:33.254Z,9.77
2023-01-29T01:32:00.554Z,12.00
2023-01-29T01:34:28.000Z,10.23
2023-01-29T01:36:58.486Z,10.80
2023-01-29T01:39:25.462Z,11.90
2023-01-29T01:41:53.854Z,13.80
2023-01-29T01:44:38.323Z,12.87
2023-01-29T01:47:05.424Z,12.73
2023-01-29T01:49:32.394Z,10.37
2023-01-29T01:52:01.207Z,8.77
2023-01-29T01:54:32.412Z,11.80
2023-01-29T01:57:09.897Z,10.13
2023-01-29T01:59:38.323Z,10.33
2023-01-29T02:02:25.999Z,12.90
2023-01-29T02:05:12.481Z,10.10
2023-01-29T02:08:04.417Z,8.07
2023-01-29T02:10:38.316Z,10.27
2023-01-29T02:13:07.559Z,9.13
2023-01-29T02:15:34.322Z,10.60
2023-01-29T02:18:01.202Z,11.30
2023-01-29T02:20:32.110Z,11.40
2023-01-29T02:23:17.776Z,9.03
2023-01-29T02:25:56.298Z,12.90
2023-01-29T02:28:37.335Z,11.60
2023-01-29T02:31:14.588Z,11.80
2023-01-29T02:33:56.180Z,11.43
2023-01-29T02:36:38.416Z,11.43
2023-01-29T02:39:15.746Z,12.90
2023-01-29T02:42:07.483Z,10.67
2023-01-29T02:44:37.615Z,14.73
2023-01-29T02:47:19.893Z,13.77
2023-01-29T02:50:08.091Z,11.17
2023-01-29T02:52:37.349Z,10.77
2023-01-29T02:55:18.539Z,11.43
2023-01-29T02:57:49.480Z,12.40
2023-01-29T03:00:20.178Z,10.80
2023-01-29T03:02:58.649Z,11.17
2023-01-29T03:05:38.449Z,13.07
2023-01-29T03:08:10.475Z,10.83
2023-01-29T03:10:38.468Z,12.07
2023-01-29T03:13:15.221Z,10.50
2023-01-29T03:15:51.448Z,15.80
2023-01-29T03:18:22.705Z,17.47
2023-01-29T03:20:58.567Z,12.70
2023-01-29T03:23:38.317Z,16.00
2023-01-29T03:26:24.971Z,12.30
2023-01-29T03:29:11.071Z,13.33
2023-01-29T03:31:56.482Z,16.93
2023-01-29T03:34:34.949Z,13.57
2023-01-29T03:37:01.571Z,13.87
2023-01-29T03:39:29.961Z,9.83
2023-01-29T03:41:59.911Z,11.47
2023-01-29T03:44:29.250Z,14.40
2023-01-29T03:46:59.386Z,14.30
2023-01-29T03:49:38.341Z,14.18
2023-01-29T03:52:17.135Z,11.27
2023-01-29T03:55:02.235Z,11.37
2023-01-29T04:00:32.091Z,13.47
2023-01-29T04:03:22.336Z,13.63
2023-01-29T04:06:01.908Z,13.77
2023-01-29T04:08:32.860Z,15.73
2023-01-29T04:11:05.562Z,11.57
2023-01-29T04:13:34.018Z,12.07
2023-01-29T04:16:02.270Z,15.60
2023-01-29T04:18:32.633Z,12.43
2023-01-29T04:21:01.512Z,11.47
2023-01-29T04:23:28.377Z,11.13
2023-01-29T04:26:06.977Z,13.10
2023-01-29T04:28:38.619Z,12.53
2023-01-29T04:31:12.778Z,12.57
2023-01-29T04:34:04.413Z,12.00
2023-01-29T04:36:38.428Z,13.57
2023-01-29T04:39:38.375Z,14.30
2023-01-29T04:42:30.567Z,11.30
2023-01-29T04:45:21.477Z,13.17
2023-01-29T04:48:20.363Z,13.60
2023-01-29T04:50:59.562Z,13.23
2023-01-29T04:53:33.524Z,13.37
2023-01-29T04:56:29.740Z,12.27
2023-01-29T04:59:03.228Z,14.70
2023-01-29T05:01:33.303Z,11.97
2023-01-29T05:04:05.385Z,11.93
2023-01-29T05:06:32.912Z,12.77
2023-01-29T05:09:01.790Z,14.30
2023-01-29T05:11:31.005Z,11.80
2023-01-29T05:13:58.842Z,12.23
2023-01-29T05:16:38.776Z,14.93
2023-01-29T05:19:05.506Z,15.67
2023-01-29T05:21:33.040Z,13.33
2023-01-29T05:24:14.355Z,13.27
2023-01-29T05:27:02.426Z,14.80
2023-01-29T05:29:29.375Z,13.80
2023-01-29T05:31:56.336Z,11.07
2023-01-29T05:34:23.150Z,15.00
2023-01-29T05:36:50.348Z,14.70
2023-01-29T05:39:17.472Z,16.63
2023-01-29T05:41:44.294Z,19.17
2023-01-29T05:44:11.825Z,15.23
2023-01-29T05:46:39.583Z,17.73
2023-01-29T05:49:06.615Z,13.13
2023-01-29T05:51:33.586Z,12.53
2023-01-29T05:54:07.560Z,16.20
2023-01-29T05:56:34.324Z,13.57
2023-01-29T05:59:01.101Z,14.90
2023-01-29T06:01:27.845Z,16.80
2023-01-29T06:03:54.557Z,15.30
2023-01-29T06:06:21.448Z,16.47
2023-01-29T06:08:48.525Z,17.33
2023-01-29T06:11:16.839Z,14.30
2023-01-29T06:13:43.796Z,14.60
2023-01-29T06:16:12.833Z,14.60
2023-01-29T06:18:40.542Z,11.90
2023-01-29T06:21:12.541Z,12.33
2023-01-29T06:23:40.018Z,14.00
2023-01-29T06:26:12.315Z,11.87
2023-01-29T06:28:39.114Z,12.57
2023-01-29T06:31:37.386Z,11.87
2023-01-29T06:33:53.830Z,13.77
2023-01-29T06:36:24.356Z,12.37
2023-01-29T06:38:51.034Z,14.97
2023-01-29T06:41:19.857Z,15.00
2023-01-29T06:43:47.961Z,11.83
2023-01-29T06:46:14.730Z,16.25
2023-01-29T06:48:41.707Z,12.93
2023-01-29T06:51:09.856Z,14.03
2023-01-29T06:53:38.877Z,12.27
2023-01-29T06:56:06.725Z,12.17
2023-01-29T06:58:33.678Z,21.77
2023-01-29T07:01:19.716Z,18.13
2023-01-29T07:03:54.914Z,18.73
2023-01-29T07:06:22.563Z,18.20
2023-01-29T07:08:49.270Z,15.27
2023-01-29T07:11:16.148Z,15.73
2023-01-29T07:13:43.025Z,16.70
2023-01-29T07:16:10.010Z,18.63
2023-01-29T07:21:07.271Z,16.67
2023-01-29T07:23:35.526Z,14.47
2023-01-29T07:26:06.807Z,16.03
2023-01-29T07:28:38.518Z,14.30
2023-01-29T07:31:06.391Z,16.73
2023-01-29T07:33:33.729Z,16.43
2023-01-29T07:36:07.292Z,12.27
2023-01-29T07:38:34.007Z,15.37
2023-01-29T07:41:03.965Z,18.10
2023-01-29T07:43:31.170Z,15.03
2023-01-29T07:46:03.367Z,19.40
2023-01-29T07:48:30.448Z,13.27
2023-01-29T07:50:57.414Z,17.80
2023-01-29T07:53:24.748Z,13.53
2023-01-29T07:55:51.673Z,13.50
2023-01-29T07:58:18.449Z,14.00
2023-01-29T08:00:45.869Z,15.20
2023-01-29T08:03:16.508Z,11.63
2023-01-29T08:05:44.390Z,14.57
2023-01-29T08:08:14.659Z,14.27
2023-01-29T08:10:42.008Z,12.90
2023-01-29T08:13:09.003Z,16.97
2023-01-29T08:18:04.800Z,16.10
2023-01-29T08:20:34.866Z,15.80
2023-01-29T08:23:07.981Z,13.13
2023-01-29T08:25:35.851Z,13.83
2023-01-29T08:28:03.531Z,13.38
2023-01-29T08:30:32.935Z,12.25
2023-01-29T08:32:59.804Z,12.73
2023-01-29T08:35:27.321Z,14.53
2023-01-29T08:37:59.849Z,14.27
2023-01-29T08:40:35.240Z,13.90
2023-01-29T08:43:08.705Z,15.27
2023-01-29T08:45:38.508Z,16.73
2023-01-29T08:48:07.963Z,15.45
2023-01-29T08:50:35.226Z,12.27
2023-01-29T08:53:04.541Z,11.77
2023-01-29T08:55:31.272Z,11.50
2023-01-29T08:57:57.957Z,9.40
2023-01-29T09:00:24.941Z,11.93
2023-01-29T09:02:51.749Z,12.43
2023-01-29T09:05:18.882Z,10.95
2023-01-29T09:07:45.831Z,11.77
2023-01-29T09:10:13.574Z,14.07
2023-01-29T09:12:40.396Z,10.77
2023-01-29T09:15:07.679Z,11.20
2023-01-29T09:17:34.557Z,13.13
2023-01-29T09:20:01.357Z,11.00
2023-01-29T09:22:28.466Z,12.15
2023-01-29T09:24:55.113Z,8.60
2023-01-29T09:27:21.777Z,9.45
2023-01-29T09:29:48.407Z,11.88
2023-01-29T09:32:16.837Z,11.73
2023-01-29T09:34:46.373Z,9.88
2023-01-29T09:37:13.143Z,11.35
2023-01-29T09:39:39.760Z,9.60
2023-01-29T09:42:15.126Z,10.88
2023-01-29T09:45:12.848Z,11.82
2023-01-29T09:47:42.612Z,12.73
2023-01-29T09:50:23.910Z,8.20
2023-01-29T09:52:57.339Z,10.40
2023-01-29T09:55:31.034Z,9.43
2023-01-29T09:58:01.035Z,13.50
2023-01-29T10:00:34.998Z,10.45
2023-01-29T10:03:20.572Z,9.38
2023-01-29T10:05:51.616Z,12.07
2023-01-29T10:08:37.573Z,12.85
2023-01-29T10:11:31.377Z,10.15
2023-01-29T10:14:31.487Z,11.60
2023-01-29T10:17:07.027Z,11.63
2023-01-29T10:19:37.613Z,9.85
2023-01-29T10:22:23.070Z,9.38
2023-01-29T10:25:25.673Z,8.68
2023-01-29T10:27:56.485Z,11.05
2023-01-29T10:30:35.009Z,12.13
2023-01-29T10:33:07.478Z,12.18
2023-01-29T10:35:38.563Z,12.90
2023-01-29T10:38:32.986Z,10.45
2023-01-29T10:41:11.534Z,12.63
2023-01-29T10:43:51.479Z,11.70
2023-01-29T10:46:33.340Z,11.80
2023-01-29T10:49:18.525Z,11.00
2023-01-29T10:52:00.255Z,11.93
2023-01-29T10:54:38.707Z,13.80
2023-01-29T10:57:34.442Z,12.98
2023-01-29T11:00:13.481Z,10.93
2023-01-29T11:02:48.757Z,9.15
2023-01-29T11:05:38.638Z,13.07
2023-01-29T11:08:25.245Z,10.95
2023-01-29T11:11:10.230Z,12.63
2023-01-29T11:13:38.621Z,8.02
2023-01-29T11:16:06.417Z,10.15
2023-01-29T11:18:37.890Z,9.25
2023-01-29T11:21:05.180Z,9.55
2023-01-29T11:23:33.835Z,8.88
2023-01-29T11:26:01.519Z,8.55
2023-01-29T11:28:37.633Z,9.32
2023-01-29T11:31:15.708Z,10.10
2023-01-29T11:33:42.873Z,11.82
2023-01-29T11:36:38.817Z,9.52
2023-01-29T11:39:15.262Z,13.18
2023-01-29T11:42:03.405Z,11.98
2023-01-29T11:44:33.396Z,9.35
2023-01-29T11:47:11.521Z,9.65
2023-01-29T11:49:39.643Z,9.82
2023-01-29T11:52:11.553Z,9.15
2023-01-29T11:55:05.917Z,14.25
2023-01-29T12:00:13.050Z,7.50
2023-01-29T12:02:45.826Z,10.20
2023-01-29T12:05:24.336Z,10.38
2023-01-29T12:07:55.317Z,10.50
2023-01-29T12:10:38.762Z,12.13
2023-01-29T12:13:07.680Z,10.38
2023-01-29T12:15:34.446Z,10.25
2023-01-29T12:18:04.178Z,10.90
2023-01-29T12:20:38.564Z,10.70
2023-01-29T12:23:23.135Z,10.98
2023-01-29T12:26:08.689Z,12.50
2023-01-29T12:28:39.025Z,10.93
2023-01-29T12:31:20.785Z,8.75
2023-01-29T12:34:16.055Z,12.77
2023-01-29T12:36:53.326Z,10.38
2023-01-29T12:39:24.275Z,10.82
2023-01-29T12:42:05.363Z,9.43
2023-01-29T12:44:41.304Z,11.15
2023-01-29T12:47:17.157Z,11.65
2023-01-29T12:49:47.054Z,11.52
2023-01-29T12:52:21.831Z,12.48
2023-01-29T12:54:56.566Z,8.82
2023-01-29T12:57:38.761Z,11.05
2023-01-29T13:00:29.045Z,9.15
2023-01-29T13:03:00.147Z,10.43
2023-01-29T13:05:33.343Z,11.55
2023-01-29T13:08:14.681Z,10.00
2023-01-29T13:10:46.811Z,8.80
2023-01-29T13:13:30.674Z,10.98
2023-01-29T13:16:00.770Z,9.98
2023-01-29T13:18:38.924Z,8.77
2023-01-29T13:21:06.022Z,10.50
2023-01-29T13:23:38.971Z,9.15
2023-01-29T13:26:08.260Z,11.52
2023-01-29T13:28:35.158Z,7.93
2023-01-29T13:31:20.510Z,9.30
2023-01-29T13:34:20.575Z,8.57
2023-01-29T13:36:51.938Z,8.60
2023-01-29T13:39:30.295Z,8.80
2023-01-29T13:41:59.439Z,9.35
2023-01-29T13:47:07.915Z,8.85
2023-01-29T13:49:38.889Z,7.18
2023-01-29T13:52:27.431Z,10.20
2023-01-29T13:55:01.130Z,10.00
2023-01-29T13:57:38.768Z,8.88
2023-01-29T14:00:08.104Z,9.30
2023-01-29T14:02:34.933Z,7.63
2023-01-29T14:05:30.808Z,10.00
2023-01-29T14:08:24.099Z,9.80
2023-01-29T14:11:13.472Z,9.07
2023-01-29T14:13:42.092Z,8.13
2023-01-29T14:16:17.691Z,10.15
2023-01-29T14:19:07.928Z,8.60
2023-01-29T14:21:38.684Z,9.30
2023-01-29T14:24:17.123Z,8.23
2023-01-29T14:26:46.220Z,10.88
2023-01-29T14:29:14.491Z,9.48
2023-01-29T14:31:48.293Z,12.07
2023-01-29T14:34:26.970Z,11.07
2023-01-29T14:37:04.723Z,10.45
2023-01-29T14:39:38.735Z,8.55
2023-01-29T14:42:19.074Z,10.30
2023-01-29T14:44:48.602Z,11.15
2023-01-29T14:47:33.593Z,11.10
2023-01-29T14:50:06.745Z,11.25
2023-01-29T14:52:38.683Z,9.63
2023-01-29T14:58:04.913Z,11.32
2023-01-29T15:03:12.406Z,9.68
2023-01-29T15:05:40.487Z,12.02
2023-01-29T15:08:13.539Z,12.40
2023-01-29T15:10:45.526Z,10.40
2023-01-29T15:13:26.355Z,10.27
2023-01-29T15:15:58.130Z,11.18
2023-01-29T15:18:40.290Z,9.07
2023-01-29T15:21:13.820Z,13.98
2023-01-29T15:23:41.028Z,17.00
2023-01-29T15:26:19.861Z,14.23
2023-01-29T15:29:04.278Z,11.55
2023-01-29T15:31:32.429Z,12.63
2023-01-29T15:34:07.981Z,16.02
2023-01-29T15:39:10.444Z,16.60
2023-01-29T15:44:04.021Z,13.90
2023-01-29T15:46:38.701Z,14.82
2023-01-29T15:49:16.608Z,15.00
2023-01-29T15:51:43.803Z,12.88
2023-01-29T15:54:15.988Z,16.48
2023-01-29T15:56:52.643Z,15.35
2023-01-29T15:59:26.268Z,13.37
2023-01-29T16:01:54.306Z,16.15
2023-01-29T16:04:29.127Z,14.83
2023-01-29T16:06:58.196Z,14.05
2023-01-29T16:09:28.657Z,19.83
2023-01-29T16:11:58.929Z,14.03
2023-01-29T16:14:26.917Z,14.98
2023-01-29T16:16:54.142Z,13.63
2023-01-29T16:19:23.531Z,12.95
2023-01-29T16:22:02.065Z,18.17
2023-01-29T16:24:31.417Z,17.77
2023-01-29T16:27:01.235Z,18.38
2023-01-29T16:29:33.198Z,15.55
2023-01-29T16:32:02.835Z,16.13
2023-01-29T16:34:35.268Z,15.03
2023-01-29T16:37:05.344Z,16.42
2023-01-29T16:39:39.006Z,16.50
2023-01-29T16:42:20.367Z,14.98
2023-01-29T16:44:50.404Z,10.60
2023-01-29T16:47:39.224Z,17.67
2023-01-29T16:50:43.382Z,17.93
2023-01-29T16:53:23.658Z,16.57
2023-01-29T16:55:52.817Z,17.33
2023-01-29T16:58:23.191Z,19.37
2023-01-29T17:00:56.239Z,18.63
2023-01-29T17:03:30.338Z,18.30
2023-01-29T17:06:08.542Z,16.87
2023-01-29T17:08:35.556Z,16.00
2023-01-29T17:11:03.300Z,17.10
2023-01-29T17:13:37.836Z,16.77
2023-01-29T17:16:29.441Z,19.33
2023-01-29T17:18:56.640Z,22.47
2023-01-29T17:21:24.335Z,20.87
2023-01-29T17:23:52.282Z,16.47
2023-01-29T17:26:20.476Z,16.77
2023-01-29T17:28:53.274Z,21.57
2023-01-29T17:31:20.556Z,33.73
2023-01-29T17:33:48.241Z,32.17
2023-01-29T17:36:17.453Z,18.03
2023-01-29T17:38:44.857Z,23.63
2023-01-29T17:41:24.071Z,17.93
2023-01-29T17:43:50.835Z,23.50
2023-01-29T17:46:18.429Z,18.93
2023-01-29T17:48:48.061Z,23.40
2023-01-29T17:51:17.245Z,24.70
2023-01-29T17:53:46.595Z,25.13
2023-01-29T17:56:21.541Z,23.23
2023-01-29T17:58:48.257Z,22.13
2023-01-29T18:01:15.316Z,22.87
2023-01-29T18:03:42.040Z,23.67
2023-01-29T18:06:09.871Z,23.30
2023-01-29T18:08:38.781Z,22.10
2023-01-29T18:11:05.865Z,23.17
2023-01-29T18:13:35.536Z,24.73
2023-01-29T18:16:02.624Z,24.40
2023-01-29T18:18:29.520Z,24.63
2023-01-29T18:20:56.319Z,26.70
2023-01-29T18:23:23.286Z,27.73
2023-01-29T18:25:50.014Z,30.53
2023-01-29T18:28:18.185Z,30.97
2023-01-29T18:30:48.084Z,28.93
2023-01-29T18:33:16.353Z,28.60
2023-01-29T18:35:48.398Z,29.20
2023-01-29T18:38:18.880Z,30.43
2023-01-29T18:40:45.658Z,33.00
2023-01-29T18:43:14.857Z,34.03
2023-01-29T18:45:41.652Z,37.90
2023-01-29T18:48:09.429Z,32.63
2023-01-29T18:53:04.590Z,28.77
2023-01-29T18:55:31.499Z,36.37
2023-01-29T18:58:26.285Z,30.90
2023-01-29T19:00:47.897Z,33.17
2023-01-29T19:03:14.788Z,31.47
2023-01-29T19:05:41.757Z,31.17
2023-01-29T19:08:08.554Z,37.77
2023-01-29T19:10:35.582Z,37.40
2023-01-29T19:13:02.416Z,34.63
2023-01-29T19:15:29.444Z,37.40
2023-01-29T19:17:57.013Z,42.37
2023-01-29T19:20:23.818Z,30.93
2023-01-29T19:22:51.551Z,35.17
2023-01-29T19:25:19.784Z,35.40
2023-01-29T19:27:49.938Z,31.93
2023-01-29T19:30:20.046Z,35.83
2023-01-29T19:32:49.461Z,31.97
2023-01-29T19:35:16.603Z,31.63
2023-01-29T19:37:44.315Z,37.20
2023-01-29T19:40:11.662Z,33.30
2023-01-29T19:42:38.547Z,33.93
2023-01-29T19:45:11.916Z,44.43
2023-01-29T19:47:45.124Z,45.53
2023-01-29T19:50:12.509Z,34.40
2023-01-29T19:52:50.608Z,35.70
2023-01-29T19:55:19.309Z,36.50
2023-01-29T19:57:47.090Z,30.63
2023-01-29T20:00:15.943Z,36.67
2023-01-29T20:02:42.733Z,34.37
2023-01-29T20:05:12.475Z,37.53
2023-01-29T20:07:50.089Z,37.33
2023-01-29T20:10:18.065Z,35.07
2023-01-29T20:12:46.273Z,34.97
2023-01-29T20:15:14.552Z,33.83
2023-01-29T20:17:42.031Z,33.93
2023-01-29T20:20:09.828Z,35.63
2023-01-29T20:25:03.344Z,28.83
2023-01-29T20:27:30.159Z,30.90
2023-01-29T20:29:57.592Z,32.43
2023-01-29T20:32:24.627Z,33.57
2023-01-29T20:34:53.875Z,37.00
2023-01-29T20:37:20.746Z,32.73
2023-01-29T20:39:47.664Z,32.60
2023-01-29T20:42:14.640Z,36.50
2023-01-29T20:44:42.150Z,34.20
2023-01-29T20:47:09.997Z,31.93
2023-01-29T20:52:04.255Z,40.90
2023-01-29T20:54:33.526Z,32.40
2023-01-29T20:57:00.397Z,38.27
2023-01-29T20:59:29.329Z,38.27
2023-01-29T21:01:56.182Z,36.67
2023-01-29T21:04:23.100Z,41.17
2023-01-29T21:06:49.830Z,35.93
2023-01-29T21:09:16.656Z,41.33
2023-01-29T21:11:45.254Z,41.73
2023-01-29T21:14:13.997Z,41.67
2023-01-29T21:16:41.004Z,44.17
2023-01-29T21:19:07.822Z,42.97
2023-01-29T21:21:34.846Z,46.40
2023-01-29T21:24:04.759Z,46.20
2023-01-29T21:26:31.948Z,42.90
2023-01-29T21:29:01.534Z,32.40
2023-01-29T21:31:28.300Z,40.90
2023-01-29T21:33:56.162Z,31.53
2023-01-29T21:36:25.219Z,42.80
2023-01-29T21:38:52.089Z,41.33
2023-01-29T21:41:39.012Z,34.50
2023-01-29T21:44:05.837Z,40.93
2023-01-29T21:46:32.765Z,38.43
2023-01-29T21:49:02.392Z,38.93
2023-01-29T21:51:29.229Z,21.20
2023-01-29T21:53:56.348Z,39.37
2023-01-29T21:56:23.195Z,33.93
2023-01-29T21:58:50.210Z,34.17
2023-01-29T22:01:36.532Z,35.67
2023-01-29T22:04:04.722Z,39.03
2023-01-29T22:06:31.443Z,34.20
2023-01-29T22:08:58.236Z,32.83
2023-01-29T22:11:25.047Z,40.43
2023-01-29T22:13:51.786Z,33.80
2023-01-29T22:16:18.584Z,31.67
2023-01-29T22:18:45.288Z,38.30
2023-01-29T22:21:12.088Z,37.40
2023-01-29T22:23:39.564Z,34.37
2023-01-29T22:26:07.477Z,42.27
2023-01-29T22:31:05.193Z,37.87
2023-01-29T22:33:33.367Z,38.47
2023-01-29T22:36:00.764Z,42.40
2023-01-29T22:38:27.776Z,42.20
2023-01-29T22:40:55.957Z,36.60
2023-01-29T22:43:24.761Z,35.67
2023-01-29T22:45:51.990Z,30.53
2023-01-29T22:48:19.265Z,34.57
2023-01-29T22:50:53.934Z,35.27
2023-01-29T22:53:24.312Z,37.73
2023-01-29T22:55:56.012Z,31.07
2023-01-29T22:58:26.231Z,35.57
2023-01-29T23:00:53.158Z,35.67
2023-01-29T23:03:20.096Z,34.17
2023-01-29T23:05:46.969Z,30.00
2023-01-29T23:08:13.978Z,33.30
2023-01-29T23:10:40.748Z,33.93
2023-01-29T23:13:07.538Z,37.37
2023-01-29T23:15:34.358Z,35.03
2023-01-29T23:18:01.146Z,31.33
2023-01-29T23:20:27.917Z,34.00
2023-01-29T23:22:54.906Z,29.33
2023-01-29T23:25:38.901Z,33.87
2023-01-29T23:28:05.638Z,29.40
2023-01-29T23:30:32.343Z,31.97
2023-01-29T23:32:59.208Z,30.73
2023-01-29T23:35:28.873Z,35.10
2023-01-29T23:37:56.229Z,32.27
2023-01-29T23:40:23.229Z,33.17
2023-01-29T23:42:53.169Z,23.33
2023-01-29T23:45:23.536Z,35.37
2023-01-29T23:47:50.449Z,32.27
2023-01-29T23:50:17.730Z,31.30
2023-01-29T23:52:44.603Z,34.67
2023-01-29T23:55:11.267Z,33.53
2023-01-29T23:57:38.917Z,27.07
